»·PEaware :: N1422E KLAX-KSNA

N1422E :: KLAX-KSNA

FLIGHT INFORMATION

Flight Status: Arrived
Operator: Privately registered:
United States
More flights under this callsign
Pilot: Jonathan B. (787)
Aircraft: CESSNA T210 TURBO CENTURION
(T210)
More flights by this aircraft type
Origin: KLAX Los Angeles Intl
United States
Destination: KSNA John Wayne-Orange Co
United States
More flights between these airports :: More routes between these airports
Route: SLI8 SLI
File this flight plan on PilotEdge
Remarks: none
Altitude:
(Current/Filed)
4,000ft
Speed:
(Current/Filed)
160kts
Departed: 16-Feb-20 04:26 PM
Arrived: 16-Feb-20 04:57 PM
Distance/Time
Traveled:
31nm/0:31
Distance/Time
To Go:
Arrived

Flight Plot

Page will automatically refresh every two minutes.

Flight plan parsing failed; only flown route is shown


Map Options




Map Legend


Flown Route
Filed Route
Departure Airport
Arrival Airport
Navaid (VOR, NDB)
Fix

Horizontal Profiles

Position Reports

Time Latitude Longitude Heading Altitude Ground
Speed
16-Feb-20 16:07 33.933927 -118.387749 173 129ft 0kts
16-Feb-20 16:08 33.933927 -118.387749 173 129ft 0kts
16-Feb-20 16:09 33.933927 -118.387749 173 129ft 0kts
16-Feb-20 16:10 33.933927 -118.387749 173 129ft 0kts
16-Feb-20 16:11 33.933927 -118.387749 173 129ft 0kts
16-Feb-20 16:12 33.933927 -118.387749 173 129ft 0kts
16-Feb-20 16:13 33.934227 -118.387633 1 129ft 0kts
16-Feb-20 16:14 33.934227 -118.387633 1 129ft 0kts
16-Feb-20 16:15 33.934227 -118.387633 1 129ft 0kts
16-Feb-20 16:16 33.934227 -118.387633 1 129ft 0kts
16-Feb-20 16:17 33.934227 -118.387633 1 129ft 0kts
16-Feb-20 16:18 33.934227 -118.387633 1 129ft 0kts
16-Feb-20 16:19 33.934227 -118.387633 1 129ft 0kts
16-Feb-20 16:20 33.934227 -118.387633 1 129ft 0kts
16-Feb-20 16:21 33.934227 -118.387633 1 129ft 0kts
16-Feb-20 16:22 33.935613 -118.387618 76 129ft 6kts
16-Feb-20 16:23 33.936334 -118.382885 28 129ft 3kts
16-Feb-20 16:24 33.936368 -118.382866 23 129ft 1kts
16-Feb-20 16:25 33.936342 -118.392419 262 360ft 89kts
16-Feb-20 16:26 33.930612 -118.423955 256 2037ft 101kts
16-Feb-20 16:27 33.910858 -118.447637 211 3288ft 125kts
16-Feb-20 16:28 33.874291 -118.433238 160 4083ft 157kts
16-Feb-20 16:29 33.830968 -118.408138 169 3712ft 181kts
16-Feb-20 16:30 33.786221 -118.387590 156 4080ft 176kts
16-Feb-20 16:31 33.757974 -118.343154 112 4577ft 163kts
16-Feb-20 16:32 33.744893 -118.286620 104 4401ft 195kts
16-Feb-20 16:33 33.732639 -118.222788 80 3697ft 196kts
16-Feb-20 16:34 33.747004 -118.165199 66 3678ft 163kts
16-Feb-20 16:35 33.769875 -118.120170 43 3655ft 160kts
16-Feb-20 16:37 33.784054 -118.073054 73 3985ft 151kts
16-Feb-20 16:38 33.796040 -118.021814 76 3860ft 159kts
16-Feb-20 16:39 33.805957 -117.970594 80 4087ft 145kts
16-Feb-20 16:40 33.810405 -117.923452 86 4675ft 132kts
16-Feb-20 16:41 33.817552 -117.879791 75 5244ft 139kts
16-Feb-20 16:42 33.828638 -117.833734 62 5610ft 144kts
16-Feb-20 16:43 33.852975 -117.786657 52 5071ft 173kts
16-Feb-20 16:44 33.883337 -117.744666 41 5074ft 160kts
16-Feb-20 16:45 33.911971 -117.707777 45 4705ft 143kts
16-Feb-20 16:46 33.940046 -117.676800 30 4011ft 137kts
16-Feb-20 16:47 33.952420 -117.693761 212 3545ft 116kts
16-Feb-20 16:48 33.923982 -117.709071 215 3181ft 101kts
16-Feb-20 16:49 33.895634 -117.727896 210 3431ft 131kts
16-Feb-20 16:50 33.862279 -117.749898 208 3472ft 143kts
16-Feb-20 16:51 33.824858 -117.771975 211 2985ft 156kts
16-Feb-20 16:51 33.794235 -117.793554 205 2650ft 153kts
16-Feb-20 16:53 33.760958 -117.814539 211 2142ft 102kts
16-Feb-20 16:54 33.735216 -117.831308 212 1153ft 107kts
16-Feb-20 16:55 33.711078 -117.846602 209 699ft 94kts
16-Feb-20 16:55 33.691490 -117.858791 210 342ft 94kts
16-Feb-20 16:57 33.677952 -117.867687 248 60ft 8kts
16-Feb-20 16:58 33.678214 -117.868930 294 60ft 0kts
16-Feb-20 16:58 33.678214 -117.868930 294 60ft 0kts

Navigation Log

Ident Type
Flight plan parsing failed, navigation log unavailable